Weather at Llano Municipal Airport

Public forecast

Using degrees Fahrenheit for public forecast. Weather courtesy of forecast.io.

Current aviation weather report (METAR) for Llano Municipal Airport

Retrieved 2020/09/20 10:35 UTC (0 seconds ago):

KAQO 201035Z AUTO 36004KT 8SM SCT045 OVC075 14/12 A3011 RMK AO2

Closest aviation forecast (TAF) to Llano Municipal Airport

Closest forecast is Curtis Field, 41.5 nm (76.9 km) NW. Retrieved 2020/09/20 06:40 UTC (4 hours ago):

TAF KBBD 200538Z 2006/2106 VRB03KT P6SM SKC FM201600 04009KT P6SM SKC FM210200 05005KT P6SM SKC